createdAt,value
2019-01-03T00:02:51.723Z,0.30
2019-01-03T00:08:13.133Z,0.30
2019-01-03T00:13:28.352Z,0.30
2019-01-03T00:18:37.182Z,0.30
2019-01-03T00:23:46.293Z,0.20
2019-01-03T00:29:06.093Z,0.10
2019-01-03T00:34:09.249Z,0.00
2019-01-03T00:39:21.520Z,-0.10
2019-01-03T00:44:41.070Z,-0.10
2019-01-03T00:49:47.152Z,-0.10
2019-01-03T00:54:52.915Z,-0.10
2019-01-03T00:59:56.068Z,-0.10
2019-01-03T01:05:11.381Z,-0.20
2019-01-03T01:10:14.541Z,-0.30
2019-01-03T01:15:29.946Z,-0.40
2019-01-03T01:20:45.001Z,-0.50
2019-01-03T01:25:57.010Z,-0.40
2019-01-03T01:31:16.654Z,-0.50
2019-01-03T01:36:36.586Z,-0.30
2019-01-03T01:41:48.880Z,-0.20
2019-01-03T01:46:54.917Z,-0.20
2019-01-03T01:57:28.164Z,-0.10
2019-01-03T02:02:37.136Z,0.00
2019-01-03T02:07:42.929Z,0.00
2019-01-03T02:12:48.842Z,0.10
2019-01-03T02:18:00.887Z,0.20
2019-01-03T02:23:06.663Z,0.20
2019-01-03T02:28:21.809Z,0.30
2019-01-03T02:33:41.533Z,0.40
2019-01-03T02:39:01.490Z,0.40
2019-01-03T02:44:07.243Z,0.50
2019-01-03T02:49:10.375Z,0.40
2019-01-03T02:54:16.435Z,0.40
2019-01-03T02:59:25.795Z,0.30
2019-01-03T03:04:44.267Z,0.30
2019-01-03T03:09:50.226Z,0.20
2019-01-03T03:15:05.623Z,0.30
2019-01-03T03:20:08.888Z,0.30
2019-01-03T03:25:20.996Z,0.30
2019-01-03T03:30:24.165Z,0.30
2019-01-03T03:35:27.301Z,0.40
2019-01-03T03:40:49.151Z,0.40
2019-01-03T03:45:55.159Z,0.50
2019-01-03T03:51:07.987Z,0.50
2019-01-03T03:56:11.118Z,0.50
2019-01-03T04:01:30.830Z,0.60
2019-01-03T04:06:40.045Z,0.50
2019-01-03T04:11:55.435Z,0.60
2019-01-03T04:17:15.247Z,0.60
2019-01-03T04:22:21.052Z,0.70
2019-01-03T04:27:39.141Z,0.70
2019-01-03T04:32:45.166Z,0.60
2019-01-03T04:37:57.197Z,0.60
2019-01-03T04:43:00.339Z,0.70
2019-01-03T04:48:03.476Z,0.70
2019-01-03T04:53:15.802Z,0.80
2019-01-03T04:58:33.945Z,0.90
2019-01-03T05:03:48.830Z,0.90
2019-01-03T05:08:54.584Z,0.90
2019-01-03T05:14:14.583Z,0.90
2019-01-03T05:19:32.729Z,0.90
2019-01-03T05:24:41.718Z,1.00
2019-01-03T05:29:53.752Z,0.90
2019-01-03T05:34:59.554Z,0.80
2019-01-03T05:40:21.147Z,0.70
2019-01-03T05:45:30.202Z,0.60
2019-01-03T05:50:42.000Z,0.60
2019-01-03T05:56:01.691Z,0.60
2019-01-03T06:01:04.868Z,0.70
2019-01-03T06:06:24.532Z,0.80
2019-01-03T06:11:39.819Z,0.80
2019-01-03T06:16:48.789Z,0.80
2019-01-03T06:22:01.119Z,0.80
2019-01-03T06:27:13.464Z,0.50
2019-01-03T06:32:22.256Z,0.50
2019-01-03T06:37:37.555Z,0.60
2019-01-03T06:42:57.506Z,0.60
2019-01-03T06:48:06.703Z,0.70
2019-01-03T06:53:26.395Z,0.90
2019-01-03T06:58:46.271Z,0.80
2019-01-03T07:03:58.296Z,0.80
2019-01-03T07:09:04.055Z,0.80
2019-01-03T07:14:23.861Z,0.90
2019-01-03T07:19:41.986Z,0.90
2019-01-03T07:24:45.126Z,0.90
2019-01-03T07:29:54.176Z,1.00
2019-01-03T07:35:13.896Z,1.20
2019-01-03T07:40:29.033Z,1.30
2019-01-03T07:45:44.153Z,1.50
2019-01-03T07:51:04.135Z,1.60
2019-01-03T07:56:24.068Z,1.60
2019-01-03T08:01:30.244Z,1.70
2019-01-03T08:06:36.272Z,1.80
2019-01-03T08:11:45.062Z,1.80
2019-01-03T08:17:03.136Z,2.00
2019-01-03T08:22:22.833Z,2.20
2019-01-03T08:27:28.618Z,2.30
2019-01-03T08:32:34.633Z,2.40
2019-01-03T08:37:52.753Z,2.50
2019-01-03T08:42:55.896Z,2.50
2019-01-03T08:47:59.032Z,2.60
2019-01-03T08:53:18.730Z,2.60
2019-01-03T08:58:24.507Z,2.70
2019-01-03T09:03:27.736Z,2.80
2019-01-03T09:08:43.113Z,2.70
2019-01-03T09:14:02.728Z,2.80
2019-01-03T09:19:08.548Z,2.80
2019-01-03T09:24:17.893Z,3.00
2019-01-03T09:29:36.232Z,3.00
2019-01-03T09:34:39.386Z,3.00
2019-01-03T09:39:51.191Z,3.10
2019-01-03T09:44:52.441Z,3.10
2019-01-03T09:49:53.679Z,3.20
2019-01-03T09:54:54.920Z,3.30
2019-01-03T09:59:56.155Z,3.30
2019-01-03T10:04:57.906Z,3.40
2019-01-03T10:09:59.144Z,3.50
2019-01-03T10:15:00.432Z,3.60
2019-01-03T10:20:03.931Z,3.50
2019-01-03T10:25:05.291Z,3.60
2019-01-03T10:30:06.951Z,3.60
2019-01-03T10:35:08.195Z,3.70
2019-01-03T10:40:09.444Z,3.70
2019-01-03T10:45:10.680Z,3.70
2019-01-03T10:50:11.917Z,3.80
2019-01-03T10:55:13.265Z,3.80
2019-01-03T11:00:14.592Z,3.80
2019-01-03T11:05:15.820Z,3.90
2019-01-03T11:10:17.079Z,3.80
2019-01-03T11:15:18.325Z,3.90
2019-01-03T11:20:19.564Z,3.90
2019-01-03T11:25:20.934Z,4.00
2019-01-03T11:30:22.186Z,4.10
2019-01-03T11:35:23.422Z,4.10
2019-01-03T11:40:24.678Z,4.10
2019-01-03T11:45:25.932Z,4.30
2019-01-03T11:50:27.179Z,4.20
2019-01-03T11:55:28.435Z,4.30
2019-01-03T12:00:29.674Z,4.40
2019-01-03T12:05:30.937Z,4.30
2019-01-03T12:10:32.172Z,4.10
2019-01-03T12:15:33.422Z,4.10
2019-01-03T12:20:34.668Z,4.00
2019-01-03T12:25:35.907Z,4.00
2019-01-03T12:30:37.153Z,4.20
2019-01-03T12:35:38.439Z,4.40
2019-01-03T12:40:39.684Z,4.50
2019-01-03T12:45:40.976Z,4.60
2019-01-03T12:50:42.217Z,4.50
2019-01-03T12:55:43.470Z,4.50
2019-01-03T13:00:44.819Z,4.50
2019-01-03T13:05:46.072Z,4.60
2019-01-03T13:10:47.364Z,4.70
2019-01-03T13:15:48.622Z,4.70
2019-01-03T13:20:49.876Z,4.70
2019-01-03T13:25:51.113Z,4.90
2019-01-03T13:30:52.361Z,4.80
2019-01-03T13:35:53.636Z,4.60
2019-01-03T13:40:54.890Z,4.60
2019-01-03T13:45:56.169Z,4.60
2019-01-03T13:50:57.421Z,4.70
2019-01-03T13:55:58.676Z,4.60
2019-01-03T14:00:59.935Z,4.60
2019-01-03T14:06:01.288Z,4.70
2019-01-03T14:11:02.655Z,4.70
2019-01-03T14:16:04.025Z,4.70
2019-01-03T14:21:05.371Z,4.70
2019-01-03T14:26:06.633Z,4.70
2019-01-03T14:31:07.885Z,4.70
2019-01-03T14:36:10.099Z,4.80
2019-01-03T14:41:11.362Z,4.60
2019-01-03T14:46:12.709Z,4.60
2019-01-03T14:51:13.946Z,4.60
2019-01-03T14:56:15.193Z,4.50
2019-01-03T15:01:16.430Z,4.50
2019-01-03T15:06:17.657Z,4.50
2019-01-03T15:11:18.911Z,4.50
2019-01-03T15:16:20.160Z,4.30
2019-01-03T15:21:21.504Z,3.70
2019-01-03T15:26:22.796Z,3.50
2019-01-03T15:31:24.025Z,3.40
2019-01-03T15:36:25.284Z,3.40
2019-01-03T15:41:26.560Z,3.40
2019-01-03T15:46:27.814Z,3.40
2019-01-03T15:51:29.183Z,3.40
2019-01-03T15:56:30.449Z,3.60
2019-01-03T16:01:31.691Z,3.70
2019-01-03T16:06:33.005Z,3.70
2019-01-03T16:11:34.338Z,3.70
2019-01-03T16:16:35.684Z,3.80
2019-01-03T16:21:37.029Z,3.70
2019-01-03T16:26:38.362Z,3.70
2019-01-03T16:31:39.713Z,3.70
2019-01-03T16:36:41.084Z,3.60
2019-01-03T16:41:42.414Z,3.70
2019-01-03T16:46:43.860Z,3.70
2019-01-03T16:51:45.316Z,3.70
2019-01-03T16:56:46.669Z,3.80
2019-01-03T17:01:48.021Z,3.80
2019-01-03T17:06:49.343Z,3.80
2019-01-03T17:11:50.677Z,3.90
2019-01-03T17:16:51.975Z,3.90
2019-01-03T17:21:53.307Z,3.90
2019-01-03T17:26:54.746Z,3.80
2019-01-03T17:31:56.128Z,3.70
2019-01-03T17:36:57.468Z,3.60
2019-01-03T17:41:58.903Z,3.70
2019-01-03T17:47:00.414Z,3.70
2019-01-03T17:52:01.876Z,3.70
2019-01-03T17:57:03.135Z,3.60
2019-01-03T18:02:05.492Z,3.50
2019-01-03T18:07:06.756Z,3.40
2019-01-03T18:12:08.031Z,3.40
2019-01-03T18:17:09.297Z,3.30
2019-01-03T18:22:10.594Z,3.40
2019-01-03T18:27:11.868Z,3.50
2019-01-03T18:32:13.233Z,3.50
2019-01-03T18:37:14.491Z,3.60
2019-01-03T18:42:15.721Z,3.70
2019-01-03T18:47:16.983Z,3.70
2019-01-03T18:52:18.259Z,3.70
2019-01-03T18:57:19.487Z,3.70
2019-01-03T19:02:20.770Z,3.70
2019-01-03T19:07:22.011Z,3.60
2019-01-03T19:12:23.252Z,3.60
2019-01-03T19:17:24.510Z,3.70
2019-01-03T19:22:25.862Z,3.60
2019-01-03T19:27:27.118Z,3.60
2019-01-03T19:32:28.413Z,3.70
2019-01-03T19:37:29.659Z,3.60
2019-01-03T19:42:30.955Z,3.60
2019-01-03T19:47:32.306Z,3.60
2019-01-03T19:52:33.557Z,3.60
2019-01-03T19:57:34.813Z,3.50
2019-01-03T20:02:36.172Z,3.50
2019-01-03T20:07:38.370Z,3.40
2019-01-03T20:12:40.019Z,3.30
2019-01-03T20:17:41.501Z,3.20
2019-01-03T20:22:42.764Z,3.10
2019-01-03T20:27:44.071Z,3.10
2019-01-03T20:32:45.476Z,3.00
2019-01-03T20:37:46.749Z,3.00
2019-01-03T20:42:48.028Z,3.00
2019-01-03T20:47:49.416Z,3.00
2019-01-03T20:52:50.788Z,2.90
2019-01-03T20:57:52.137Z,2.80
2019-01-03T21:02:53.461Z,3.00
2019-01-03T21:07:54.754Z,3.00
2019-01-03T21:12:56.062Z,2.70
2019-01-03T21:17:57.448Z,2.50
2019-01-03T21:22:58.797Z,2.50
2019-01-03T21:28:00.075Z,2.50
2019-01-03T21:33:01.306Z,2.60
2019-01-03T21:38:02.606Z,2.60
2019-01-03T21:43:03.991Z,2.50
2019-01-03T21:48:05.240Z,2.30
2019-01-03T21:53:06.591Z,2.00
2019-01-03T21:58:07.842Z,1.80
2019-01-03T22:03:09.094Z,1.90
2019-01-03T22:08:10.344Z,1.80
2019-01-03T22:13:11.635Z,1.60
2019-01-03T22:18:12.977Z,1.50
2019-01-03T22:23:14.521Z,1.30
2019-01-03T22:28:15.740Z,1.30
2019-01-03T22:33:17.074Z,1.10
2019-01-03T22:38:18.371Z,1.00
2019-01-03T22:43:19.666Z,0.90
2019-01-03T22:48:20.911Z,0.90
2019-01-03T22:53:22.164Z,0.90
2019-01-03T22:58:23.416Z,0.80
2019-01-03T23:03:25.112Z,0.70
2019-01-03T23:08:26.372Z,0.60
2019-01-03T23:13:27.648Z,0.60
2019-01-03T23:18:31.465Z,0.60
2019-01-03T23:23:32.029Z,0.50
2019-01-03T23:28:33.379Z,0.50
2019-01-03T23:33:34.658Z,0.40
2019-01-03T23:38:35.943Z,0.40
2019-01-03T23:43:37.196Z,0.40
2019-01-03T23:48:38.543Z,0.30
2019-01-03T23:53:39.836Z,0.30
2019-01-03T23:58:41.082Z,0.30
